Time;durP1;ratioP1;P1;durP2;ratioP2;P2;SDS_P1;SDS_P2;PMS_P1;PMS_P2;Temp;Humidity;BMP_temperature;BMP_pressure;BME280_temperature;BME280_humidity;BME280_pressure;Samples;Min_cycle;Max_cycle;Signal;HPM_P1;HPM_P2
2022/07/27 00:01:13;;;;;;;8.25;4.55;;;;;;;;;;4895896;29;20032;-61
2022/07/27 00:03:39;;;;;;;5.85;4.65;;;;;;;;;;4895785;29;20145;-61
2022/07/27 00:06:06;;;;;;;7.63;4.95;;;;;;;;;;4899346;29;20440;-61
2022/07/27 00:08:32;;;;;;;7.25;4.75;;;;;;;;;;4899613;29;20112;-64
2022/07/27 00:10:58;;;;;;;6.32;4.93;;;;;;;;;;4899358;29;20392;-64
2022/07/27 04:14:05;;;;;;;12.00;7.47;;;;;;;;;;5095263;23;20068;-56
2022/07/27 04:16:31;;;;;;;10.43;7.82;;;;;;;;;;4896153;29;20032;-57
2022/07/27 04:18:57;;;;;;;10.02;6.85;;;;;;;;;;4895765;29;20108;-75
2022/07/27 04:21:23;;;;;;;14.48;11.10;;;;;;;;;;4896193;29;20063;-63
2022/07/27 04:23:49;;;;;;;11.80;8.95;;;;;;;;;;4894710;29;20021;-73
2022/07/27 04:26:16;;;;;;;10.13;7.43;;;;;;;;;;4877457;29;20437;-57
2022/07/27 04:28:42;;;;;;;10.10;6.80;;;;;;;;;;4895544;29;20342;-73
2022/07/27 04:31:08;;;;;;;9.15;7.05;;;;;;;;;;4895260;29;20032;-57
2022/07/27 04:33:34;;;;;;;11.02;7.10;;;;;;;;;;4895348;29;20039;-57
2022/07/27 04:36:00;;;;;;;11.70;7.38;;;;;;;;;;4895795;29;20039;-57
2022/07/27 04:38:26;;;;;;;10.55;7.18;;;;;;;;;;4894775;29;20036;-57
2022/07/27 04:40:52;;;;;;;10.77;9.35;;;;;;;;;;4895673;29;20056;-59
2022/07/27 04:43:18;;;;;;;12.35;10.52;;;;;;;;;;4895395;29;20092;-57
2022/07/27 04:45:44;;;;;;;10.00;7.88;;;;;;;;;;4895411;29;20032;-75
2022/07/27 04:48:10;;;;;;;8.85;6.88;;;;;;;;;;4895211;29;20028;-58
2022/07/27 04:50:40;;;;;;;11.20;7.88;;;;;;;;;;4895564;29;20032;-73
2022/07/27 04:53:07;;;;;;;10.82;7.55;;;;;;;;;;4898751;29;20037;-59
2022/07/27 04:55:33;;;;;;;11.02;8.80;;;;;;;;;;4898996;29;20497;-58
2022/07/27 04:57:59;;;;;;;11.07;7.78;;;;;;;;;;4881549;29;20697;-58
2022/07/27 05:00:25;;;;;;;8.48;7.57;;;;;;;;;;4899015;29;20032;-66
2022/07/27 05:02:51;;;;;;;8.88;7.82;;;;;;;;;;5003158;23;20061;-58
2022/07/27 05:05:17;;;;;;;9.70;7.30;;;;;;;;;;4876007;29;20325;-58
2022/07/27 05:07:43;;;;;;;9.13;7.70;;;;;;;;;;4879864;29;20357;-58
2022/07/27 05:10:10;;;;;;;10.80;8.02;;;;;;;;;;4880327;29;20481;-59
2022/07/27 05:12:37;;;;;;;9.95;8.43;;;;;;;;;;4898050;29;20036;-64
2022/07/27 05:15:04;;;;;;;9.75;8.45;;;;;;;;;;4898277;29;20075;-58
2022/07/27 05:17:30;;;;;;;9.80;8.80;;;;;;;;;;4898791;29;20536;-58
2022/07/27 05:19:56;;;;;;;9.90;8.70;;;;;;;;;;4898765;29;20413;-58
2022/07/27 05:22:22;;;;;;;9.55;7.95;;;;;;;;;;4898408;29;20051;-58
2022/07/27 05:24:48;;;;;;;10.48;8.82;;;;;;;;;;4898628;29;20025;-58
2022/07/27 05:27:14;;;;;;;10.63;9.35;;;;;;;;;;4898651;29;20079;-58
2022/07/27 05:29:40;;;;;;;10.57;9.48;;;;;;;;;;4898548;29;20393;-58
2022/07/27 05:32:06;;;;;;;10.63;9.10;;;;;;;;;;4898239;29;20468;-59
2022/07/27 05:34:32;;;;;;;13.73;9.80;;;;;;;;;;4898476;29;20516;-58
2022/07/27 05:36:59;;;;;;;13.48;10.30;;;;;;;;;;4898559;29;20036;-61
2022/07/27 05:39:25;;;;;;;14.52;10.20;;;;;;;;;;4898768;29;20049;-61
2022/07/27 05:41:51;;;;;;;14.80;9.77;;;;;;;;;;4898485;29;20028;-62
2022/07/27 05:44:17;;;;;;;14.45;10.60;;;;;;;;;;4898330;29;20064;-61
2022/07/27 05:46:43;;;;;;;15.10;11.10;;;;;;;;;;4898078;29;20029;-61
2022/07/27 05:49:09;;;;;;;14.55;10.55;;;;;;;;;;4900634;29;20055;-63
2022/07/27 05:51:37;;;;;;;14.18;10.68;;;;;;;;;;4913907;29;20112;-64
2022/07/27 05:54:03;;;;;;;15.45;11.77;;;;;;;;;;4916965;29;20103;-64
2022/07/27 05:56:29;;;;;;;15.30;10.27;;;;;;;;;;4916946;29;20032;-66
2022/07/27 05:58:55;;;;;;;13.68;11.65;;;;;;;;;;4916653;29;20400;-65
2022/07/27 06:01:21;;;;;;;15.68;11.63;;;;;;;;;;4916791;29;20096;-61
2022/07/27 06:03:47;;;;;;;13.88;11.52;;;;;;;;;;4915880;29;20477;-64
2022/07/27 06:08:58;;;;;;;14.65;12.40;;;;;;;;;;4916837;29;20080;-62
2022/07/27 06:11:24;;;;;;;20.88;14.35;;;;;;;;;;4916492;29;20375;-62
2022/07/27 06:13:51;;;;;;;15.05;11.85;;;;;;;;;;4899189;29;20052;-62
2022/07/27 06:16:17;;;;;;;16.60;12.00;;;;;;;;;;4916325;29;20020;-62
2022/07/27 06:18:44;;;;;;;19.90;13.48;;;;;;;;;;4916542;29;20071;-62
2022/07/27 06:21:10;;;;;;;15.18;11.32;;;;;;;;;;4916526;29;20107;-62
2022/07/27 06:23:36;;;;;;;21.83;12.95;;;;;;;;;;4916329;29;20467;-62
2022/07/27 06:26:02;;;;;;;20.08;13.23;;;;;;;;;;4916427;29;20035;-63
2022/07/27 06:28:28;;;;;;;20.15;14.80;;;;;;;;;;4916441;29;20032;-64
2022/07/27 06:30:54;;;;;;;18.05;13.45;;;;;;;;;;4901039;29;20033;-63
2022/07/27 06:33:29;;;;;;;15.88;13.60;;;;;;;;;;4899343;29;20089;-63
2022/07/27 06:35:56;;;;;;;20.83;15.75;;;;;;;;;;4901944;29;20031;-62
2022/07/27 06:38:23;;;;;;;18.90;15.50;;;;;;;;;;4904532;29;20032;-62
2022/07/27 06:40:53;;;;;;;17.15;14.25;;;;;;;;;;4905581;29;20469;-63
2022/07/27 06:43:22;;;;;;;15.15;13.27;;;;;;;;;;4899237;29;20107;-63
2022/07/27 06:45:48;;;;;;;19.85;14.13;;;;;;;;;;4898148;29;20055;-63
2022/07/27 06:48:14;;;;;;;18.13;13.82;;;;;;;;;;4915704;29;20024;-63
2022/07/27 06:50:41;;;;;;;17.58;14.50;;;;;;;;;;4912700;29;20029;-62
2022/07/27 06:53:07;;;;;;;18.85;14.38;;;;;;;;;;4903146;29;20493;-64
2022/07/27 06:55:33;;;;;;;16.13;14.02;;;;;;;;;;4889281;29;20087;-62
2022/07/27 06:57:59;;;;;;;16.35;12.90;;;;;;;;;;4915214;29;20060;-65
2022/07/27 07:00:25;;;;;;;18.17;14.15;;;;;;;;;;4911809;29;20060;-65
2022/07/27 07:02:55;;;;;;;18.98;14.57;;;;;;;;;;4896536;29;20048;-66
2022/07/27 07:05:22;;;;;;;18.30;13.80;;;;;;;;;;4896995;29;20222;-63
2022/07/27 07:07:48;;;;;;;18.33;14.15;;;;;;;;;;4896853;29;20024;-63
2022/07/27 07:10:14;;;;;;;18.52;14.40;;;;;;;;;;4896725;29;20481;-65
2022/07/27 07:12:40;;;;;;;18.48;13.65;;;;;;;;;;4896303;29;20115;-63
2022/07/27 07:15:07;;;;;;;19.02;13.98;;;;;;;;;;4896053;29;20493;-66
2022/07/27 07:17:33;;;;;;;18.25;14.73;;;;;;;;;;4896409;29;20508;-66
2022/07/27 07:19:59;;;;;;;15.60;13.60;;;;;;;;;;4896434;29;20032;-63
2022/07/27 07:22:25;;;;;;;19.58;14.38;;;;;;;;;;4896393;29;20363;-64
2022/07/27 07:24:51;;;;;;;17.08;13.95;;;;;;;;;;4896150;29;20036;-63
2022/07/27 07:27:22;;;;;;;18.35;13.15;;;;;;;;;;4896287;29;20029;-63
2022/07/27 07:29:48;;;;;;;17.40;14.18;;;;;;;;;;4896468;29;20024;-63
2022/07/27 07:32:14;;;;;;;16.08;14.18;;;;;;;;;;4896228;29;20056;-63
2022/07/27 07:34:42;;;;;;;17.50;13.90;;;;;;;;;;4896547;29;20063;-63
2022/07/27 07:37:08;;;;;;;16.45;13.90;;;;;;;;;;4896402;29;20028;-63
2022/07/27 07:39:35;;;;;;;16.63;14.25;;;;;;;;;;4896344;29;20064;-65
2022/07/27 07:42:01;;;;;;;14.73;12.90;;;;;;;;;;4896161;29;20035;-63
2022/07/27 07:44:27;;;;;;;15.80;13.38;;;;;;;;;;4896042;29;20024;-66
2022/07/27 07:46:53;;;;;;;14.52;12.80;;;;;;;;;;4879010;29;20039;-63
2022/07/27 07:49:21;;;;;;;14.82;13.10;;;;;;;;;;4896141;29;20029;-65
2022/07/27 07:51:47;;;;;;;18.85;12.98;;;;;;;;;;4896073;29;20032;-63
2022/07/27 07:54:13;;;;;;;18.73;12.38;;;;;;;;;;4896012;29;20064;-63
2022/07/27 07:56:39;;;;;;;14.07;12.10;;;;;;;;;;4896432;29;20039;-66
2022/07/27 07:59:05;;;;;;;19.77;13.40;;;;;;;;;;4896176;29;20032;-63
2022/07/27 08:01:32;;;;;;;19.23;14.43;;;;;;;;;;4896103;29;20025;-64
2022/07/27 08:03:58;;;;;;;15.90;14.07;;;;;;;;;;4895879;29;20059;-65
2022/07/27 08:06:24;;;;;;;17.38;14.48;;;;;;;;;;4896297;29;20510;-63
2022/07/27 08:08:50;;;;;;;16.60;13.18;;;;;;;;;;4895913;29;20059;-63
2022/07/27 08:11:16;;;;;;;17.38;13.13;;;;;;;;;;4896110;29;20112;-63
2022/07/27 08:13:42;;;;;;;15.60;12.95;;;;;;;;;;4895680;29;20120;-63
2022/07/27 08:16:08;;;;;;;14.20;12.60;;;;;;;;;;4895984;29;20021;-63
2022/07/27 08:18:34;;;;;;;15.13;12.75;;;;;;;;;;4895894;29;20028;-63
2022/07/27 08:21:00;;;;;;;16.27;13.30;;;;;;;;;;4895869;29;20047;-63
2022/07/27 08:23:26;;;;;;;18.42;13.27;;;;;;;;;;4895731;29;20466;-63
2022/07/27 08:25:52;;;;;;;17.52;12.70;;;;;;;;;;4897835;29;20039;-65
2022/07/27 08:28:18;;;;;;;16.67;14.55;;;;;;;;;;4899599;29;20032;-63
2022/07/27 08:30:45;;;;;;;17.05;14.57;;;;;;;;;;4899510;29;20025;-64
2022/07/27 08:33:11;;;;;;;17.98;14.20;;;;;;;;;;4899201;29;20449;-65
2022/07/27 08:35:37;;;;;;;18.73;14.32;;;;;;;;;;4899787;29;20504;-65
2022/07/27 08:38:04;;;;;;;17.15;13.05;;;;;;;;;;4899402;29;20140;-66
2022/07/27 08:40:31;;;;;;;19.75;14.35;;;;;;;;;;4899341;29;20100;-65
2022/07/27 08:43:00;;;;;;;17.85;14.18;;;;;;;;;;4899295;29;20032;-63
2022/07/27 08:45:26;;;;;;;14.75;12.30;;;;;;;;;;4899008;29;20374;-63
2022/07/27 08:47:52;;;;;;;18.23;12.50;;;;;;;;;;4899463;29;20037;-64
2022/07/27 08:50:22;;;;;;;15.65;12.48;;;;;;;;;;4899183;29;20033;-63
2022/07/27 08:52:54;;;;;;;18.50;13.65;;;;;;;;;;4899083;29;20037;-63
2022/07/27 08:55:20;;;;;;;15.30;12.45;;;;;;;;;;4899181;29;20388;-65
2022/07/27 08:57:46;;;;;;;17.10;13.10;;;;;;;;;;4882283;29;20032;-67
2022/07/27 09:00:13;;;;;;;15.75;13.07;;;;;;;;;;4899013;29;20112;-63
2022/07/27 09:02:41;;;;;;;19.08;13.10;;;;;;;;;;4898747;29;20108;-64
2022/07/27 09:05:08;;;;;;;15.95;11.40;;;;;;;;;;4898997;29;20032;-63
2022/07/27 09:07:34;;;;;;;17.60;12.25;;;;;;;;;;4881612;29;20037;-63
2022/07/27 09:10:00;;;;;;;13.15;11.75;;;;;;;;;;4898816;29;20032;-64
2022/07/27 09:12:27;;;;;;;15.77;11.77;;;;;;;;;;4898649;29;20040;-62
2022/07/27 09:15:03;;;;;;;12.90;10.25;;;;;;;;;;4898608;29;20485;-65
2022/07/27 09:17:29;;;;;;;11.02;9.55;;;;;;;;;;4898543;29;20496;-63
2022/07/27 09:19:59;;;;;;;12.32;9.13;;;;;;;;;;4898739;29;20358;-64
2022/07/27 09:22:40;;;;;;;9.90;8.40;;;;;;;;;;4898576;29;20429;-62
2022/07/27 09:25:07;;;;;;;9.57;8.27;;;;;;;;;;4898487;29;20033;-62
2022/07/27 09:27:33;;;;;;;9.80;8.48;;;;;;;;;;4898945;29;20104;-62
2022/07/27 09:30:10;;;;;;;12.15;8.10;;;;;;;;;;4898579;29;20037;-66
2022/07/27 09:32:36;;;;;;;8.82;7.90;;;;;;;;;;4898485;29;20388;-62
2022/07/27 09:35:20;;;;;;;11.43;8.00;;;;;;;;;;4898242;29;20036;-63
2022/07/27 09:37:47;;;;;;;10.27;8.90;;;;;;;;;;4897502;29;20108;-64
2022/07/27 09:40:15;;;;;;;9.82;8.73;;;;;;;;;;4898070;29;20028;-64
2022/07/27 09:42:41;;;;;;;9.50;7.90;;;;;;;;;;4905467;29;20577;-65
2022/07/27 09:45:27;;;;;;;11.57;8.25;;;;;;;;;;4899870;29;20040;-65
2022/07/27 09:47:53;;;;;;;10.25;8.00;;;;;;;;;;4917226;29;20064;-64
2022/07/27 09:50:22;;;;;;;10.70;8.43;;;;;;;;;;4901732;29;20021;-66
2022/07/27 09:52:48;;;;;;;13.20;9.20;;;;;;;;;;4906075;29;20032;-63
2022/07/27 09:55:19;;;;;;;12.20;9.60;;;;;;;;;;4901032;29;20116;-64
2022/07/27 09:57:54;;;;;;;11.52;9.20;;;;;;;;;;4899886;29;20035;-66
2022/07/27 10:00:21;;;;;;;10.95;8.80;;;;;;;;;;4902040;29;20030;-64
2022/07/27 10:02:49;;;;;;;11.43;9.13;;;;;;;;;;4902483;29;20082;-65
2022/07/27 10:05:18;;;;;;;10.23;8.50;;;;;;;;;;4901473;29;20029;-64
2022/07/27 10:07:44;;;;;;;11.30;8.55;;;;;;;;;;4899504;29;20032;-68
2022/07/27 10:10:13;;;;;;;10.27;8.80;;;;;;;;;;4902636;29;20028;-63
2022/07/27 10:12:41;;;;;;;11.40;8.95;;;;;;;;;;4903406;29;20028;-64
2022/07/27 10:15:08;;;;;;;11.98;8.60;;;;;;;;;;4901256;29;20029;-66
2022/07/27 10:17:36;;;;;;;11.52;9.23;;;;;;;;;;4896562;29;20405;-64
2022/07/27 10:20:07;;;;;;;10.40;9.38;;;;;;;;;;4898636;29;20511;-63
2022/07/27 10:22:49;;;;;;;11.35;9.30;;;;;;;;;;4898587;29;20036;-65
2022/07/27 10:25:15;;;;;;;11.40;8.90;;;;;;;;;;4896547;29;20024;-62
2022/07/27 10:27:41;;;;;;;11.10;9.00;;;;;;;;;;4900148;29;20028;-62
2022/07/27 10:30:07;;;;;;;11.40;8.57;;;;;;;;;;4897401;29;20036;-63
2022/07/27 10:32:34;;;;;;;13.27;9.05;;;;;;;;;;4896790;29;20132;-61
2022/07/27 10:35:00;;;;;;;13.73;8.57;;;;;;;;;;4907510;29;20067;-66
2022/07/27 10:37:28;;;;;;;15.30;8.48;;;;;;;;;;4915658;29;20047;-65
2022/07/27 10:40:33;;;;;;;13.38;8.60;;;;;;;;;;4915686;29;20024;-62
2022/07/27 10:42:41;;;;;;;10.40;8.55;;;;;;;;;;4907464;29;20476;-64
2022/07/27 10:45:14;;;;;;;11.52;8.75;;;;;;;;;;4896470;29;20021;-65
2022/07/27 10:47:44;;;;;;;11.65;8.98;;;;;;;;;;4896456;29;20028;-65
2022/07/27 10:50:16;;;;;;;11.07;8.27;;;;;;;;;;4896419;29;20527;-65
2022/07/27 10:52:42;;;;;;;15.57;7.78;;;;;;;;;;4896822;29;20052;-65
2022/07/27 10:55:29;;;;;;;9.65;7.97;;;;;;;;;;4897012;29;20032;-64
2022/07/27 10:58:18;;;;;;;11.18;7.55;;;;;;;;;;4897218;29;20425;-65
2022/07/27 11:00:50;;;;;;;11.18;8.07;;;;;;;;;;4896978;29;20481;-65
2022/07/27 11:03:22;;;;;;;10.73;7.95;;;;;;;;;;4896066;29;20045;-65
2022/07/27 11:06:06;;;;;;;10.77;8.32;;;;;;;;;;4899269;29;20060;-64
2022/07/27 11:08:37;;;;;;;10.95;8.05;;;;;;;;;;4910312;29;20040;-65
2022/07/27 11:11:03;;;;;;;10.43;8.07;;;;;;;;;;4910976;29;20041;-64
2022/07/27 11:13:30;;;;;;;12.20;8.20;;;;;;;;;;4910309;29;20044;-65
2022/07/27 11:16:02;;;;;;;16.85;8.35;;;;;;;;;;4901347;29;20025;-63
2022/07/27 11:18:30;;;;;;;9.90;8.25;;;;;;;;;;4893803;29;20029;-65
2022/07/27 11:21:15;;;;;;;10.00;8.48;;;;;;;;;;4905875;29;20749;-65
2022/07/27 11:23:42;;;;;;;10.73;7.88;;;;;;;;;;4904750;29;20036;-65
2022/07/27 11:26:09;;;;;;;9.65;8.60;;;;;;;;;;4899398;29;20031;-64
2022/07/27 11:28:35;;;;;;;10.63;8.40;;;;;;;;;;4907772;29;20446;-64
2022/07/27 11:31:02;;;;;;;14.77;8.75;;;;;;;;;;4914971;29;20032;-64
2022/07/27 11:33:28;;;;;;;12.30;8.30;;;;;;;;;;4893794;29;20155;-64
2022/07/27 11:35:57;;;;;;;12.70;7.78;;;;;;;;;;4900301;29;20456;-64
2022/07/27 11:38:23;;;;;;;8.93;7.68;;;;;;;;;;4894765;29;20025;-64
2022/07/27 11:40:51;;;;;;;9.32;7.80;;;;;;;;;;4896102;29;20103;-64
2022/07/27 11:43:35;;;;;;;9.32;8.15;;;;;;;;;;4900568;29;20039;-64
2022/07/27 11:46:14;;;;;;;11.43;8.68;;;;;;;;;;4899047;29;20029;-64
2022/07/27 11:48:47;;;;;;;10.82;7.72;;;;;;;;;;4881426;29;20044;-64
2022/07/27 11:51:15;;;;;;;13.02;8.95;;;;;;;;;;4880780;29;20132;-64
2022/07/27 11:53:41;;;;;;;11.65;9.48;;;;;;;;;;4911505;29;20040;-64
2022/07/27 11:56:07;;;;;;;12.68;9.10;;;;;;;;;;4914884;29;20032;-64
2022/07/27 11:58:34;;;;;;;10.02;8.43;;;;;;;;;;4914875;29;20097;-65
2022/07/27 12:01:00;;;;;;;11.50;9.38;;;;;;;;;;4916952;29;20392;-64
2022/07/27 12:03:29;;;;;;;11.55;9.02;;;;;;;;;;4917991;29;20143;-65
2022/07/27 12:05:58;;;;;;;12.45;8.85;;;;;;;;;;4918681;29;20032;-64
2022/07/27 12:08:25;;;;;;;10.60;8.98;;;;;;;;;;4918895;29;20055;-64
2022/07/27 12:10:58;;;;;;;9.75;8.75;;;;;;;;;;4918831;29;20032;-64
2022/07/27 12:13:33;;;;;;;10.23;8.50;;;;;;;;;;4919273;29;20040;-65
2022/07/27 12:15:59;;;;;;;9.05;8.15;;;;;;;;;;4918489;29;20024;-64
2022/07/27 12:18:26;;;;;;;10.15;8.00;;;;;;;;;;4918694;29;20028;-65
2022/07/27 12:20:52;;;;;;;9.75;8.38;;;;;;;;;;4918976;29;20036;-64
2022/07/27 12:23:18;;;;;;;10.90;7.97;;;;;;;;;;4918253;29;20115;-65
2022/07/27 12:25:45;;;;;;;10.05;8.73;;;;;;;;;;4918402;29;20032;-65
2022/07/27 12:28:13;;;;;;;11.00;9.80;;;;;;;;;;4918627;29;20032;-65
2022/07/27 12:30:40;;;;;;;8.25;7.38;;;;;;;;;;4918528;29;20032;-65
2022/07/27 12:33:07;;;;;;;8.38;7.47;;;;;;;;;;4918124;29;20043;-65
2022/07/27 12:35:46;;;;;;;9.70;7.68;;;;;;;;;;4918401;29;20032;-65
2022/07/27 12:38:13;;;;;;;10.85;8.20;;;;;;;;;;4918431;29;20028;-65
2022/07/27 12:40:43;;;;;;;10.88;7.70;;;;;;;;;;4918057;29;20032;-65
2022/07/27 12:43:10;;;;;;;11.65;7.63;;;;;;;;;;4918090;29;20030;-65
2022/07/27 12:45:37;;;;;;;11.70;7.75;;;;;;;;;;4918108;29;20065;-64
2022/07/27 12:48:15;;;;;;;10.65;7.70;;;;;;;;;;4900969;29;20392;-65
2022/07/27 12:50:42;;;;;;;9.45;7.07;;;;;;;;;;4918159;29;20119;-65
2022/07/27 12:53:08;;;;;;;9.40;7.10;;;;;;;;;;4917764;29;20373;-64
2022/07/27 12:55:35;;;;;;;7.90;7.10;;;;;;;;;;4918074;29;20112;-65
2022/07/27 12:58:01;;;;;;;8.20;7.35;;;;;;;;;;4918055;29;20400;-64
2022/07/27 13:00:31;;;;;;;8.98;7.55;;;;;;;;;;4917664;29;20020;-64
2022/07/27 13:02:57;;;;;;;8.25;6.85;;;;;;;;;;4917590;29;20063;-65
2022/07/27 13:05:23;;;;;;;8.35;6.70;;;;;;;;;;4917766;29;20040;-64
2022/07/27 13:07:49;;;;;;;9.82;6.80;;;;;;;;;;4917542;29;20035;-64
2022/07/27 13:10:19;;;;;;;9.27;6.68;;;;;;;;;;4917451;29;20433;-64
2022/07/27 13:12:46;;;;;;;6.15;5.55;;;;;;;;;;4916568;29;20448;-64
2022/07/27 13:15:12;;;;;;;8.25;5.60;;;;;;;;;;4917598;29;20032;-64
2022/07/27 13:17:40;;;;;;;8.10;5.10;;;;;;;;;;4917748;29;20028;-64
2022/07/27 13:20:07;;;;;;;7.43;4.80;;;;;;;;;;4917655;29;20024;-65
2022/07/27 13:22:34;;;;;;;12.35;5.40;;;;;;;;;;4917175;29;20032;-65
2022/07/27 13:25:00;;;;;;;9.00;4.85;;;;;;;;;;4916969;29;20016;-65
2022/07/27 13:27:27;;;;;;;6.80;4.80;;;;;;;;;;4917462;29;20032;-64
2022/07/27 13:29:53;;;;;;;8.05;5.22;;;;;;;;;;4917378;29;20027;-64
2022/07/27 13:32:19;;;;;;;8.85;5.20;;;;;;;;;;4917596;29;20472;-64
2022/07/27 13:34:47;;;;;;;6.93;5.13;;;;;;;;;;4917270;29;20036;-65
2022/07/27 13:37:13;;;;;;;5.85;5.03;;;;;;;;;;4917333;29;20088;-64
2022/07/27 13:39:40;;;;;;;6.65;4.03;;;;;;;;;;4917267;29;20028;-64
2022/07/27 13:42:06;;;;;;;6.40;3.95;;;;;;;;;;4917356;29;20035;-64
2022/07/27 13:44:32;;;;;;;7.40;4.20;;;;;;;;;;4917426;29;20028;-64
2022/07/27 13:46:58;;;;;;;6.18;3.78;;;;;;;;;;4916810;29;20031;-64
2022/07/27 13:49:24;;;;;;;8.77;4.13;;;;;;;;;;4916816;29;20215;-64
2022/07/27 13:51:50;;;;;;;6.90;4.05;;;;;;;;;;4917089;29;20039;-65
2022/07/27 13:54:16;;;;;;;6.22;3.97;;;;;;;;;;4917097;29;20036;-65
2022/07/27 13:56:43;;;;;;;4.68;3.92;;;;;;;;;;4916900;29;20081;-63
2022/07/27 13:59:10;;;;;;;6.28;4.22;;;;;;;;;;4916923;29;20392;-64
2022/07/27 14:01:36;;;;;;;5.88;3.75;;;;;;;;;;4916710;29;20397;-64
2022/07/27 14:04:08;;;;;;;5.90;3.45;;;;;;;;;;4916256;29;20056;-64
2022/07/27 14:06:34;;;;;;;;;;;;;;;;;;4916349;29;20383;-64
2022/07/27 14:09:01;;;;;;;6.20;4.45;;;;;;;;;;4916191;29;19910;-64
2022/07/27 14:11:28;;;;;;;6.88;3.83;;;;;;;;;;4916721;29;20028;-64
2022/07/27 14:13:54;;;;;;;5.72;4.00;;;;;;;;;;4916433;29;20044;-66
2022/07/27 14:16:20;;;;;;;7.28;4.13;;;;;;;;;;4916289;29;20122;-64
2022/07/27 14:18:46;;;;;;;10.65;5.88;;;;;;;;;;4916309;29;20133;-64
2022/07/27 14:21:12;;;;;;;6.90;3.97;;;;;;;;;;4916465;29;20119;-64
2022/07/27 14:23:39;;;;;;;5.90;3.78;;;;;;;;;;4908626;29;20032;-66
2022/07/27 14:26:06;;;;;;;6.93;3.63;;;;;;;;;;4916355;29;20102;-62
2022/07/27 14:28:32;;;;;;;5.97;3.85;;;;;;;;;;4915966;29;20538;-64
2022/07/27 14:30:59;;;;;;;6.10;3.47;;;;;;;;;;4915992;29;20032;-61
2022/07/27 14:33:26;;;;;;;6.90;3.38;;;;;;;;;;4915870;29;20051;-62
2022/07/27 14:35:52;;;;;;;4.63;3.40;;;;;;;;;;4915324;29;20040;-61
2022/07/27 14:38:20;;;;;;;5.80;3.45;;;;;;;;;;4898600;29;20127;-62
2022/07/27 14:40:47;;;;;;;4.00;2.85;;;;;;;;;;4913527;29;20016;-63
2022/07/27 14:43:13;;;;;;;5.40;3.25;;;;;;;;;;4915426;29;20160;-64
2022/07/27 14:45:39;;;;;;;11.50;3.80;;;;;;;;;;4916013;29;20031;-63
2022/07/27 14:48:05;;;;;;;6.28;3.25;;;;;;;;;;4915918;29;20455;-64
2022/07/27 14:50:31;;;;;;;7.68;3.15;;;;;;;;;;4915691;29;20551;-64
2022/07/27 14:52:57;;;;;;;6.93;3.30;;;;;;;;;;4914606;29;20044;-63
2022/07/27 14:55:24;;;;;;;5.47;3.00;;;;;;;;;;4901572;29;20027;-62
2022/07/27 14:57:50;;;;;;;4.85;3.30;;;;;;;;;;4916002;29;20765;-63
2022/07/27 15:00:18;;;;;;;3.97;2.90;;;;;;;;;;4906662;29;20033;-63
2022/07/27 15:02:44;;;;;;;3.28;2.83;;;;;;;;;;4895968;29;20032;-63
2022/07/27 15:05:11;;;;;;;8.95;3.83;;;;;;;;;;4896920;29;20498;-65
2022/07/27 15:07:37;;;;;;;4.95;2.90;;;;;;;;;;4903477;29;20032;-63
2022/07/27 15:10:04;;;;;;;6.70;3.25;;;;;;;;;;4902546;29;20552;-63
2022/07/27 15:12:31;;;;;;;7.25;2.95;;;;;;;;;;4901980;29;20036;-63
2022/07/27 15:14:57;;;;;;;4.20;2.97;;;;;;;;;;4901289;29;20026;-64
2022/07/27 15:17:23;;;;;;;4.75;2.75;;;;;;;;;;4900003;29;20024;-63
2022/07/27 15:19:50;;;;;;;5.10;3.00;;;;;;;;;;4901041;29;20035;-64
2022/07/27 15:22:16;;;;;;;5.53;2.90;;;;;;;;;;4900510;29;20028;-64
2022/07/27 15:24:42;;;;;;;5.07;2.50;;;;;;;;;;4896893;29;20028;-63
2022/07/27 15:27:08;;;;;;;5.55;2.60;;;;;;;;;;4899976;29;20047;-65
2022/07/27 15:29:35;;;;;;;4.25;2.15;;;;;;;;;;4898946;29;20035;-63
2022/07/27 15:32:01;;;;;;;4.45;2.50;;;;;;;;;;4901190;29;20490;-64
2022/07/27 15:34:27;;;;;;;3.72;2.75;;;;;;;;;;4900143;29;20139;-64
2022/07/27 15:36:53;;;;;;;4.35;2.35;;;;;;;;;;4900341;29;20446;-65
2022/07/27 15:39:21;;;;;;;3.78;2.40;;;;;;;;;;4899353;29;20024;-64
2022/07/27 15:41:47;;;;;;;4.63;2.35;;;;;;;;;;4900157;29;20473;-65
2022/07/27 15:44:13;;;;;;;3.78;2.17;;;;;;;;;;4911774;29;20038;-65
2022/07/27 15:46:39;;;;;;;7.18;2.25;;;;;;;;;;4904690;29;20081;-65
2022/07/27 15:49:05;;;;;;;3.53;2.22;;;;;;;;;;4902854;29;20040;-64
2022/07/27 15:51:32;;;;;;;5.22;2.30;;;;;;;;;;4901737;29;20448;-64
2022/07/27 15:53:58;;;;;;;5.07;2.45;;;;;;;;;;4896268;29;20112;-65
2022/07/27 15:56:24;;;;;;;3.25;2.22;;;;;;;;;;4909294;29;20433;-65
2022/07/27 15:58:50;;;;;;;6.40;2.40;;;;;;;;;;4911202;29;20091;-65
2022/07/27 16:01:16;;;;;;;6.80;2.30;;;;;;;;;;4895123;29;20029;-65
2022/07/27 16:03:42;;;;;;;4.75;2.10;;;;;;;;;;4895723;29;20048;-65
2022/07/27 16:06:08;;;;;;;4.28;1.90;;;;;;;;;;4896303;29;20418;-65
2022/07/27 16:08:34;;;;;;;6.10;2.30;;;;;;;;;;4878635;29;20429;-65
2022/07/27 16:11:00;;;;;;;4.32;2.20;;;;;;;;;;4895828;29;20116;-65
2022/07/27 16:13:26;;;;;;;5.10;2.30;;;;;;;;;;4895623;29;20497;-64
2022/07/27 16:18:37;;;;;;;4.47;2.10;;;;;;;;;;4895854;29;20043;-64
2022/07/27 16:21:03;;;;;;;4.63;2.15;;;;;;;;;;4894945;29;20029;-64
2022/07/27 16:23:29;;;;;;;4.53;2.00;;;;;;;;;;4895355;29;20033;-64
2022/07/27 16:25:57;;;;;;;4.03;2.25;;;;;;;;;;4895455;29;20056;-64
2022/07/27 16:28:24;;;;;;;3.58;2.20;;;;;;;;;;4896128;29;20035;-64
2022/07/27 16:30:50;;;;;;;4.78;2.20;;;;;;;;;;4895871;29;20032;-64
2022/07/27 16:33:16;;;;;;;5.30;2.10;;;;;;;;;;4896125;29;20049;-64
2022/07/27 16:35:43;;;;;;;3.90;2.00;;;;;;;;;;4895873;29;20437;-64
2022/07/27 16:38:10;;;;;;;5.60;2.08;;;;;;;;;;4895447;29;20544;-65
2022/07/27 16:40:36;;;;;;;5.90;1.90;;;;;;;;;;4895552;29;20035;-64
2022/07/27 16:43:03;;;;;;;3.50;1.88;;;;;;;;;;4895072;29;20049;-64
2022/07/27 16:45:29;;;;;;;5.68;1.90;;;;;;;;;;4895919;29;20035;-65
2022/07/27 16:47:55;;;;;;;4.35;2.08;;;;;;;;;;4898809;29;20489;-64
2022/07/27 16:50:21;;;;;;;7.45;2.00;;;;;;;;;;4899440;29;20097;-64
2022/07/27 16:52:47;;;;;;;4.60;2.10;;;;;;;;;;4899143;29;20076;-64
2022/07/27 16:55:13;;;;;;;4.10;1.75;;;;;;;;;;4899143;29;20088;-64
2022/07/27 16:57:39;;;;;;;4.03;1.83;;;;;;;;;;4898978;29;20108;-64
2022/07/27 17:00:08;;;;;;;3.83;1.88;;;;;;;;;;4891368;29;20561;-64
2022/07/27 17:02:34;;;;;;;4.65;1.77;;;;;;;;;;4898541;29;20025;-64
2022/07/27 17:05:00;;;;;;;4.13;1.90;;;;;;;;;;4898886;29;20497;-64
2022/07/27 17:07:26;;;;;;;3.83;1.90;;;;;;;;;;4898720;29;20068;-64
2022/07/27 17:09:52;;;;;;;4.97;1.80;;;;;;;;;;4897666;29;20039;-65
2022/07/27 17:12:19;;;;;;;3.80;2.08;;;;;;;;;;4897892;29;20146;-65
2022/07/27 17:14:45;;;;;;;2.90;1.83;;;;;;;;;;4897931;29;20100;-64
2022/07/27 17:17:12;;;;;;;9.02;2.00;;;;;;;;;;4898253;29;20032;-64
2022/07/27 17:19:38;;;;;;;7.68;2.30;;;;;;;;;;4881467;29;20451;-65
2022/07/27 17:22:05;;;;;;;8.13;2.10;;;;;;;;;;4898665;29;20060;-64
2022/07/27 17:24:31;;;;;;;3.88;2.00;;;;;;;;;;4898580;29;20028;-64
2022/07/27 17:26:57;;;;;;;3.10;1.85;;;;;;;;;;4898843;29;20016;-64
2022/07/27 17:29:23;;;;;;;6.90;1.75;;;;;;;;;;4898513;29;20032;-64
2022/07/27 17:31:49;;;;;;;4.07;2.60;;;;;;;;;;4898307;29;20099;-64
2022/07/27 17:34:15;;;;;;;4.07;2.13;;;;;;;;;;4898556;29;20040;-65
2022/07/27 17:36:41;;;;;;;4.43;2.20;;;;;;;;;;4898501;29;20036;-65
2022/07/27 17:39:08;;;;;;;3.42;2.22;;;;;;;;;;4898249;29;20029;-64
2022/07/27 17:41:34;;;;;;;5.00;2.60;;;;;;;;;;4898468;29;20025;-65
2022/07/27 17:44:00;;;;;;;4.40;2.30;;;;;;;;;;4898251;29;20032;-64
2022/07/27 17:46:26;;;;;;;5.43;2.75;;;;;;;;;;4898242;29;20490;-64
2022/07/27 17:48:53;;;;;;;7.82;2.65;;;;;;;;;;4897971;29;20115;-64
2022/07/27 17:51:19;;;;;;;6.10;2.97;;;;;;;;;;4897907;29;20076;-65
2022/07/27 17:53:46;;;;;;;4.68;2.33;;;;;;;;;;4897913;29;20366;-64
2022/07/27 17:56:12;;;;;;;6.47;2.63;;;;;;;;;;4898222;29;20028;-64
2022/07/27 17:58:39;;;;;;;5.65;2.95;;;;;;;;;;4897616;29;20032;-64
2022/07/27 18:01:08;;;;;;;6.28;2.80;;;;;;;;;;4897894;29;20108;-64
2022/07/27 18:03:35;;;;;;;3.85;2.80;;;;;;;;;;4897464;29;20058;-64
2022/07/27 18:06:01;;;;;;;6.80;3.00;;;;;;;;;;4897662;29;20085;-64
2022/07/27 18:08:27;;;;;;;6.05;2.92;;;;;;;;;;4897762;29;20029;-64
2022/07/27 18:10:53;;;;;;;6.63;2.47;;;;;;;;;;4897645;29;20035;-64
2022/07/27 18:13:19;;;;;;;4.82;2.80;;;;;;;;;;4897886;29;20044;-64
2022/07/27 18:15:45;;;;;;;6.90;3.15;;;;;;;;;;4897819;29;20759;-64
2022/07/27 18:18:12;;;;;;;7.15;3.42;;;;;;;;;;4880344;29;20445;-64
2022/07/27 18:20:38;;;;;;;10.10;3.40;;;;;;;;;;4897605;29;20047;-64
2022/07/27 18:23:05;;;;;;;8.55;3.47;;;;;;;;;;4889683;29;20028;-66
2022/07/27 18:25:31;;;;;;;5.70;3.58;;;;;;;;;;4897457;29;20050;-64
2022/07/27 18:27:57;;;;;;;7.07;3.05;;;;;;;;;;4897517;29;20035;-64
2022/07/27 18:30:23;;;;;;;6.80;3.22;;;;;;;;;;4897398;29;20033;-64
2022/07/27 18:32:49;;;;;;;6.10;3.88;;;;;;;;;;4897151;29;20477;-64
2022/07/27 18:35:15;;;;;;;10.02;3.50;;;;;;;;;;4897198;29;20119;-64
2022/07/27 18:37:41;;;;;;;8.85;3.50;;;;;;;;;;4897312;29;20021;-64
2022/07/27 18:40:08;;;;;;;10.43;3.80;;;;;;;;;;4896999;29;20033;-63